createdAt,value
2024-02-16T00:02:12.939Z,8.41
2024-02-16T00:07:35.219Z,8.70
2024-02-16T00:18:54.652Z,8.72
2024-02-16T00:24:16.568Z,8.68
2024-02-16T00:29:38.339Z,8.62
2024-02-16T00:35:00.192Z,8.69
2024-02-16T00:40:22.025Z,8.71
2024-02-16T00:45:43.816Z,8.60
2024-02-16T00:51:05.769Z,8.75
2024-02-16T00:56:27.566Z,8.58
2024-02-16T01:01:49.306Z,8.52
2024-02-16T01:07:11.140Z,8.66
2024-02-16T01:12:44.676Z,8.60
2024-02-16T01:18:06.542Z,8.20
2024-02-16T01:23:46.631Z,8.26
2024-02-16T01:29:08.402Z,8.05
2024-02-16T01:34:30.254Z,8.02
2024-02-16T01:39:52.115Z,7.90
2024-02-16T01:45:14.489Z,7.95
2024-02-16T01:50:38.175Z,7.89
2024-02-16T01:56:00.470Z,7.84
2024-02-16T02:01:22.284Z,7.84
2024-02-16T02:06:44.259Z,7.53
2024-02-16T02:12:06.374Z,7.77
2024-02-16T02:17:28.328Z,7.65
2024-02-16T02:22:50.140Z,7.62
2024-02-16T02:28:11.889Z,7.55
2024-02-16T02:33:33.844Z,7.46
2024-02-16T02:38:55.740Z,7.54
2024-02-16T02:44:17.527Z,7.46
2024-02-16T02:49:39.380Z,7.46
2024-02-16T02:55:01.187Z,7.44
2024-02-16T03:00:23.064Z,7.34
2024-02-16T03:05:44.920Z,7.25
2024-02-16T03:11:06.706Z,7.23
2024-02-16T03:16:28.464Z,7.26
2024-02-16T03:21:50.416Z,7.00
2024-02-16T03:27:13.181Z,6.95
2024-02-16T03:32:35.184Z,6.93
2024-02-16T03:37:57.025Z,6.94
2024-02-16T03:43:18.802Z,6.98
2024-02-16T03:48:40.689Z,7.04
2024-02-16T03:54:02.588Z,7.02
2024-02-16T03:59:25.262Z,7.00
2024-02-16T04:04:47.074Z,6.89
2024-02-16T04:10:09.236Z,6.97
2024-02-16T04:15:31.146Z,6.79
2024-02-16T04:20:53.061Z,6.55
2024-02-16T04:26:14.853Z,6.75
2024-02-16T04:31:36.619Z,6.67
2024-02-16T04:36:58.412Z,6.83
2024-02-16T04:42:20.200Z,6.53
2024-02-16T04:47:42.016Z,6.61
2024-02-16T04:53:04.022Z,6.58
2024-02-16T04:58:25.838Z,6.54
2024-02-16T05:03:47.631Z,6.58
2024-02-16T05:09:09.820Z,6.37
2024-02-16T05:14:31.626Z,6.50
2024-02-16T05:19:53.492Z,6.23
2024-02-16T05:25:16.043Z,6.32
2024-02-16T05:30:37.858Z,6.12
2024-02-16T05:35:59.611Z,5.97
2024-02-16T05:41:21.713Z,6.07
2024-02-16T05:46:45.804Z,6.02
2024-02-16T05:52:07.586Z,6.12
2024-02-16T05:57:29.389Z,6.00
2024-02-16T06:02:51.247Z,6.12
2024-02-16T06:08:14.002Z,6.25
2024-02-16T06:13:35.744Z,6.33
2024-02-16T06:18:57.551Z,6.31
2024-02-16T06:24:19.408Z,6.35
2024-02-16T06:29:41.376Z,6.42
2024-02-16T06:35:03.316Z,6.56
2024-02-16T06:40:25.077Z,6.72
2024-02-16T06:45:46.884Z,6.94
2024-02-16T06:51:11.380Z,6.94
2024-02-16T06:56:33.442Z,7.12
2024-02-16T07:01:55.201Z,7.29
2024-02-16T07:07:17.181Z,7.13
2024-02-16T07:12:39.100Z,7.52
2024-02-16T07:18:01.072Z,7.52
2024-02-16T07:23:24.069Z,10.33
2024-02-16T07:28:46.144Z,15.71
2024-02-16T07:34:08.015Z,19.65
2024-02-16T07:39:29.948Z,22.28
2024-02-16T07:44:54.380Z,25.53
2024-02-16T07:50:22.219Z,26.66
2024-02-16T07:55:43.974Z,26.27
2024-02-16T08:01:05.792Z,27.94
2024-02-16T08:06:27.939Z,28.67
2024-02-16T08:11:49.896Z,29.22
2024-02-16T08:17:19.021Z,29.22
2024-02-16T08:22:41.826Z,27.73
2024-02-16T08:28:03.765Z,18.35
2024-02-16T08:33:25.734Z,14.76
2024-02-16T08:38:47.687Z,13.84
2024-02-16T08:44:09.475Z,12.66
2024-02-16T08:49:31.291Z,12.20
2024-02-16T08:54:53.205Z,11.81
2024-02-16T09:00:15.514Z,11.79
2024-02-16T09:05:37.314Z,11.98
2024-02-16T09:10:59.164Z,11.45
2024-02-16T09:16:23.582Z,11.84
2024-02-16T09:21:47.029Z,11.79
2024-02-16T09:27:08.838Z,12.13
2024-02-16T09:32:30.625Z,12.38
2024-02-16T09:37:52.486Z,11.86
2024-02-16T09:43:32.000Z,11.94
2024-02-16T09:48:55.557Z,11.90
2024-02-16T09:54:17.576Z,11.83
2024-02-16T09:59:57.808Z,11.83
2024-02-16T10:05:22.929Z,12.29
2024-02-16T10:10:44.934Z,12.77
2024-02-16T10:16:11.060Z,13.04
2024-02-16T10:21:33.652Z,15.95
2024-02-16T10:26:55.933Z,22.48
2024-02-16T10:32:18.146Z,27.30
2024-02-16T10:37:39.890Z,29.67
2024-02-16T10:43:07.988Z,29.41
2024-02-16T10:48:29.804Z,30.44
2024-02-16T10:53:54.839Z,30.86
2024-02-16T10:59:17.480Z,31.36
2024-02-16T11:04:40.598Z,30.82
2024-02-16T11:10:02.977Z,31.62
2024-02-16T11:15:35.037Z,30.79
2024-02-16T11:21:00.883Z,30.20
2024-02-16T11:26:23.830Z,30.91
2024-02-16T11:31:46.938Z,30.54
2024-02-16T11:37:08.670Z,30.64
2024-02-16T11:42:30.454Z,29.63
2024-02-16T11:47:52.376Z,29.43
2024-02-16T11:53:18.626Z,27.17
2024-02-16T11:58:40.416Z,26.19
2024-02-16T12:04:02.164Z,25.40
2024-02-16T12:09:24.485Z,23.04
2024-02-16T12:14:46.264Z,19.08
2024-02-16T12:20:17.352Z,17.79
2024-02-16T12:25:39.352Z,17.62
2024-02-16T12:31:04.090Z,16.49
2024-02-16T12:36:26.376Z,16.29
2024-02-16T12:41:48.360Z,16.25
2024-02-16T12:47:10.914Z,16.03
2024-02-16T12:52:32.688Z,15.27
2024-02-16T12:57:54.600Z,15.28
2024-02-16T13:03:16.483Z,15.34
2024-02-16T13:08:38.409Z,17.11
2024-02-16T13:14:00.355Z,15.40
2024-02-16T13:19:22.299Z,15.95
2024-02-16T13:24:44.170Z,15.30
2024-02-16T13:30:06.800Z,14.85
2024-02-16T13:35:28.633Z,14.71
2024-02-16T13:40:50.751Z,14.58
2024-02-16T13:46:12.600Z,18.51
2024-02-16T13:51:34.475Z,20.18
2024-02-16T14:13:54.540Z,14.57
2024-02-16T14:19:16.448Z,14.54
2024-02-16T14:24:38.349Z,14.40
2024-02-16T14:30:00.529Z,14.25
2024-02-16T14:35:22.356Z,14.25
2024-02-16T14:40:44.207Z,14.13
2024-02-16T14:46:06.117Z,13.89
2024-02-16T14:51:33.971Z,13.62
2024-02-16T14:57:13.936Z,13.64
2024-02-16T15:08:26.887Z,13.36
2024-02-16T15:13:57.853Z,13.00
2024-02-16T15:19:38.014Z,12.97
2024-02-16T15:25:02.873Z,12.95
2024-02-16T15:30:24.693Z,13.09
2024-02-16T15:35:46.489Z,12.66
2024-02-16T15:41:08.307Z,12.38
2024-02-16T15:46:30.140Z,12.42
2024-02-16T15:51:51.996Z,12.36
2024-02-16T15:57:13.796Z,12.35
2024-02-16T16:02:35.589Z,12.06
2024-02-16T16:07:57.339Z,12.07
2024-02-16T16:13:19.948Z,12.02
2024-02-16T16:18:41.695Z,11.82
2024-02-16T16:24:03.815Z,11.82
2024-02-16T16:29:25.620Z,12.00
2024-02-16T16:34:47.460Z,11.87
2024-02-16T16:40:09.840Z,11.63
2024-02-16T16:45:32.149Z,11.45
2024-02-16T16:50:53.940Z,11.44
2024-02-16T16:56:15.724Z,11.37
2024-02-16T17:01:37.463Z,11.28
2024-02-16T17:07:02.407Z,11.05
2024-02-16T17:12:27.450Z,11.23
2024-02-16T17:17:49.302Z,11.20
2024-02-16T17:23:11.110Z,10.93
2024-02-16T17:28:32.818Z,11.13
2024-02-16T17:33:54.650Z,10.86
2024-02-16T17:39:17.169Z,10.74
2024-02-16T17:44:38.888Z,10.92
2024-02-16T17:50:00.752Z,10.72
2024-02-16T17:55:41.032Z,10.44
2024-02-16T18:01:03.475Z,10.57
2024-02-16T18:06:25.312Z,10.54
2024-02-16T18:11:47.115Z,10.60
2024-02-16T18:17:09.544Z,10.40
2024-02-16T18:22:31.304Z,10.41
2024-02-16T18:27:59.446Z,10.40
2024-02-16T18:33:21.329Z,10.13
2024-02-16T18:38:43.158Z,10.20
2024-02-16T18:44:05.089Z,10.20
2024-02-16T18:49:26.857Z,10.18
2024-02-16T18:54:48.743Z,10.04
2024-02-16T19:00:11.120Z,9.79
2024-02-16T19:05:32.872Z,9.94
2024-02-16T19:10:54.700Z,9.93
2024-02-16T19:16:16.526Z,9.87
2024-02-16T19:21:38.316Z,9.95
2024-02-16T19:27:00.185Z,9.59
2024-02-16T19:32:21.953Z,9.77
2024-02-16T19:37:43.735Z,9.52
2024-02-16T19:43:05.484Z,9.79
2024-02-16T19:48:27.502Z,9.61
2024-02-16T19:53:49.628Z,9.36
2024-02-16T19:59:11.337Z,9.48
2024-02-16T20:04:33.129Z,9.50
2024-02-16T20:21:23.295Z,9.17
2024-02-16T20:26:45.270Z,9.41
2024-02-16T20:49:05.658Z,9.11
2024-02-16T20:54:27.663Z,9.05
2024-02-16T20:59:49.569Z,8.99
2024-02-16T21:05:11.320Z,8.89
2024-02-16T21:10:33.150Z,8.78
2024-02-16T21:15:54.951Z,8.61
2024-02-16T21:21:16.803Z,8.93
2024-02-16T21:26:38.621Z,8.66
2024-02-16T21:32:00.399Z,8.65
2024-02-16T21:37:22.192Z,8.46
2024-02-16T21:42:43.970Z,8.46
2024-02-16T21:48:06.193Z,8.57
2024-02-16T21:53:28.029Z,8.29
2024-02-16T21:58:50.203Z,8.23
2024-02-16T22:04:12.170Z,8.48
2024-02-16T22:09:34.030Z,8.29
2024-02-16T22:14:55.888Z,8.02
2024-02-16T22:20:17.793Z,8.15
2024-02-16T22:25:39.513Z,8.18
2024-02-16T22:31:01.677Z,8.11
2024-02-16T22:42:08.950Z,8.02
2024-02-16T22:47:31.473Z,7.82
2024-02-16T22:52:53.312Z,7.87
2024-02-16T22:58:17.692Z,7.92
2024-02-16T23:03:39.474Z,7.65
2024-02-16T23:14:40.471Z,7.54
2024-02-16T23:20:05.149Z,7.47
2024-02-16T23:25:30.914Z,7.61
2024-02-16T23:30:55.560Z,7.46
2024-02-16T23:36:32.465Z,7.26
2024-02-16T23:42:12.291Z,7.40
2024-02-16T23:47:36.909Z,7.49
2024-02-16T23:53:01.947Z,7.44
2024-02-16T23:58:23.669Z,7.39
